sensor_id;sensor_type;location;lat;lon;timestamp;P1;durP1;ratioP1;P2;durP2;ratioP2
12228;SDS011;6177;52.402;9.800;2023-07-28T00:01:57;2.72;;;2.70;;
12228;SDS011;6177;52.402;9.800;2023-07-28T00:04:48;3.17;;;2.92;;
12228;SDS011;6177;52.402;9.800;2023-07-28T00:07:39;3.10;;;2.90;;
12228;SDS011;6177;52.402;9.800;2023-07-28T00:10:30;2.78;;;2.67;;
12228;SDS011;6177;52.402;9.800;2023-07-28T00:13:22;2.33;;;2.17;;
12228;SDS011;6177;52.402;9.800;2023-07-28T00:16:12;2.60;;;2.50;;
12228;SDS011;6177;52.402;9.800;2023-07-28T00:19:03;2.35;;;2.25;;
12228;SDS011;6177;52.402;9.800;2023-07-28T00:21:54;2.53;;;2.42;;
12228;SDS011;6177;52.402;9.800;2023-07-28T00:24:46;2.38;;;2.30;;
12228;SDS011;6177;52.402;9.800;2023-07-28T00:27:37;2.70;;;2.20;;
12228;SDS011;6177;52.402;9.800;2023-07-28T00:30:28;2.38;;;2.28;;
12228;SDS011;6177;52.402;9.800;2023-07-28T00:33:19;1.60;;;1.60;;
12228;SDS011;6177;52.402;9.800;2023-07-28T00:36:10;2.08;;;1.80;;
12228;SDS011;6177;52.402;9.800;2023-07-28T00:39:01;1.70;;;1.70;;
12228;SDS011;6177;52.402;9.800;2023-07-28T00:41:52;1.90;;;1.80;;
12228;SDS011;6177;52.402;9.800;2023-07-28T00:44:43;1.80;;;1.80;;
12228;SDS011;6177;52.402;9.800;2023-07-28T00:47:41;1.90;;;1.90;;
12228;SDS011;6177;52.402;9.800;2023-07-28T00:50:32;2.08;;;1.70;;
12228;SDS011;6177;52.402;9.800;2023-07-28T00:53:24;2.10;;;1.92;;
12228;SDS011;6177;52.402;9.800;2023-07-28T00:56:15;1.83;;;1.73;;
12228;SDS011;6177;52.402;9.800;2023-07-28T00:59:06;2.10;;;1.95;;
12228;SDS011;6177;52.402;9.800;2023-07-28T01:01:57;2.00;;;1.85;;
12228;SDS011;6177;52.402;9.800;2023-07-28T01:04:47;2.13;;;2.13;;
12228;SDS011;6177;52.402;9.800;2023-07-28T01:07:43;1.98;;;1.98;;
12228;SDS011;6177;52.402;9.800;2023-07-28T01:10:40;2.35;;;2.00;;
12228;SDS011;6177;52.402;9.800;2023-07-28T01:13:31;1.95;;;1.95;;
12228;SDS011;6177;52.402;9.800;2023-07-28T01:16:22;2.15;;;2.15;;
12228;SDS011;6177;52.402;9.800;2023-07-28T01:19:14;2.30;;;2.30;;
12228;SDS011;6177;52.402;9.800;2023-07-28T01:28:29;2.22;;;2.13;;
12228;SDS011;6177;52.402;9.800;2023-07-28T01:31:19;2.17;;;2.08;;
12228;SDS011;6177;52.402;9.800;2023-07-28T01:34:10;2.00;;;2.00;;
12228;SDS011;6177;52.402;9.800;2023-07-28T01:37:01;3.13;;;2.78;;
12228;SDS011;6177;52.402;9.800;2023-07-28T01:39:52;1.98;;;1.88;;
12228;SDS011;6177;52.402;9.800;2023-07-28T01:42:43;2.40;;;1.95;;
12228;SDS011;6177;52.402;9.800;2023-07-28T01:45:34;2.30;;;2.30;;
12228;SDS011;6177;52.402;9.800;2023-07-28T01:48:25;2.28;;;2.28;;
12228;SDS011;6177;52.402;9.800;2023-07-28T01:51:16;3.03;;;2.80;;
12228;SDS011;6177;52.402;9.800;2023-07-28T01:54:07;3.03;;;2.78;;
12228;SDS011;6177;52.402;9.800;2023-07-28T01:56:58;2.83;;;2.63;;
12228;SDS011;6177;52.402;9.800;2023-07-28T01:59:49;2.50;;;2.38;;
12228;SDS011;6177;52.402;9.800;2023-07-28T02:02:40;2.80;;;2.53;;
12228;SDS011;6177;52.402;9.800;2023-07-28T02:05:30;2.42;;;2.33;;
12228;SDS011;6177;52.402;9.800;2023-07-28T02:08:21;2.53;;;2.50;;
12228;SDS011;6177;52.402;9.800;2023-07-28T02:11:12;3.17;;;3.00;;
12228;SDS011;6177;52.402;9.800;2023-07-28T02:14:03;2.65;;;2.55;;
12228;SDS011;6177;52.402;9.800;2023-07-28T02:16:54;3.35;;;3.10;;
12228;SDS011;6177;52.402;9.800;2023-07-28T02:19:44;2.90;;;2.80;;
12228;SDS011;6177;52.402;9.800;2023-07-28T02:22:35;2.38;;;2.30;;
12228;SDS011;6177;52.402;9.800;2023-07-28T02:25:25;3.17;;;2.97;;
12228;SDS011;6177;52.402;9.800;2023-07-28T02:28:16;2.88;;;2.78;;
12228;SDS011;6177;52.402;9.800;2023-07-28T02:31:06;2.50;;;2.50;;
12228;SDS011;6177;52.402;9.800;2023-07-28T02:33:56;3.22;;;3.03;;
12228;SDS011;6177;52.402;9.800;2023-07-28T02:36:46;2.50;;;2.40;;
12228;SDS011;6177;52.402;9.800;2023-07-28T02:39:37;2.65;;;2.53;;
12228;SDS011;6177;52.402;9.800;2023-07-28T02:42:28;2.33;;;2.33;;
12228;SDS011;6177;52.402;9.800;2023-07-28T02:45:19;2.58;;;2.47;;
12228;SDS011;6177;52.402;9.800;2023-07-28T02:48:10;2.20;;;2.10;;
12228;SDS011;6177;52.402;9.800;2023-07-28T02:51:01;2.40;;;2.30;;
12228;SDS011;6177;52.402;9.800;2023-07-28T02:53:52;2.47;;;2.38;;
12228;SDS011;6177;52.402;9.800;2023-07-28T02:56:43;2.53;;;2.28;;
12228;SDS011;6177;52.402;9.800;2023-07-28T02:59:35;2.33;;;2.15;;
12228;SDS011;6177;52.402;9.800;2023-07-28T03:02:26;1.98;;;1.98;;
12228;SDS011;6177;52.402;9.800;2023-07-28T03:05:19;2.08;;;1.98;;
12228;SDS011;6177;52.402;9.800;2023-07-28T03:08:30;2.47;;;2.38;;
12228;SDS011;6177;52.402;9.800;2023-07-28T03:11:37;2.47;;;2.47;;
12228;SDS011;6177;52.402;9.800;2023-07-28T03:14:28;3.08;;;2.88;;
12228;SDS011;6177;52.402;9.800;2023-07-28T03:17:20;2.53;;;2.42;;
12228;SDS011;6177;52.402;9.800;2023-07-28T03:20:11;2.33;;;2.30;;
12228;SDS011;6177;52.402;9.800;2023-07-28T03:23:02;2.00;;;2.00;;
12228;SDS011;6177;52.402;9.800;2023-07-28T03:25:53;1.90;;;1.90;;
12228;SDS011;6177;52.402;9.800;2023-07-28T03:28:44;2.13;;;2.13;;
12228;SDS011;6177;52.402;9.800;2023-07-28T03:31:35;2.03;;;2.03;;
12228;SDS011;6177;52.402;9.800;2023-07-28T03:34:27;2.05;;;1.95;;
12228;SDS011;6177;52.402;9.800;2023-07-28T03:37:19;1.52;;;1.52;;
12228;SDS011;6177;52.402;9.800;2023-07-28T03:40:09;2.25;;;1.92;;
12228;SDS011;6177;52.402;9.800;2023-07-28T03:43:11;1.50;;;1.50;;
12228;SDS011;6177;52.402;9.800;2023-07-28T03:46:02;1.67;;;1.60;;
12228;SDS011;6177;52.402;9.800;2023-07-28T03:48:53;1.67;;;1.42;;
12228;SDS011;6177;52.402;9.800;2023-07-28T03:51:44;1.40;;;1.40;;
12228;SDS011;6177;52.402;9.800;2023-07-28T03:54:34;1.40;;;1.40;;
12228;SDS011;6177;52.402;9.800;2023-07-28T03:57:25;1.48;;;1.40;;
12228;SDS011;6177;52.402;9.800;2023-07-28T04:00:16;1.52;;;1.52;;
12228;SDS011;6177;52.402;9.800;2023-07-28T04:03:07;1.50;;;1.40;;
12228;SDS011;6177;52.402;9.800;2023-07-28T04:05:58;1.95;;;1.40;;
12228;SDS011;6177;52.402;9.800;2023-07-28T04:08:49;1.50;;;1.50;;
12228;SDS011;6177;52.402;9.800;2023-07-28T04:11:40;1.60;;;1.60;;
12228;SDS011;6177;52.402;9.800;2023-07-28T04:14:31;1.33;;;1.33;;
12228;SDS011;6177;52.402;9.800;2023-07-28T04:17:21;1.25;;;1.25;;
12228;SDS011;6177;52.402;9.800;2023-07-28T04:20:11;1.20;;;1.20;;
12228;SDS011;6177;52.402;9.800;2023-07-28T04:23:02;1.25;;;1.20;;
12228;SDS011;6177;52.402;9.800;2023-07-28T04:25:57;1.33;;;1.30;;
12228;SDS011;6177;52.402;9.800;2023-07-28T04:28:48;1.30;;;1.30;;
12228;SDS011;6177;52.402;9.800;2023-07-28T04:31:38;1.65;;;1.15;;
12228;SDS011;6177;52.402;9.800;2023-07-28T04:34:35;2.50;;;1.50;;
12228;SDS011;6177;52.402;9.800;2023-07-28T04:37:31;1.48;;;1.17;;
12228;SDS011;6177;52.402;9.800;2023-07-28T04:40:25;0.90;;;0.90;;
12228;SDS011;6177;52.402;9.800;2023-07-28T04:43:16;0.90;;;0.90;;
12228;SDS011;6177;52.402;9.800;2023-07-28T04:46:13;0.98;;;0.98;;
12228;SDS011;6177;52.402;9.800;2023-07-28T04:49:06;0.75;;;0.75;;
12228;SDS011;6177;52.402;9.800;2023-07-28T04:52:15;0.98;;;0.98;;
12228;SDS011;6177;52.402;9.800;2023-07-28T04:55:17;0.90;;;0.90;;
12228;SDS011;6177;52.402;9.800;2023-07-28T04:58:07;1.75;;;0.85;;
12228;SDS011;6177;52.402;9.800;2023-07-28T05:01:09;1.00;;;1.00;;
12228;SDS011;6177;52.402;9.800;2023-07-28T05:04:00;1.48;;;0.82;;
12228;SDS011;6177;52.402;9.800;2023-07-28T05:06:52;0.88;;;0.88;;
12228;SDS011;6177;52.402;9.800;2023-07-28T05:09:43;1.17;;;0.90;;
12228;SDS011;6177;52.402;9.800;2023-07-28T05:12:35;0.75;;;0.70;;
12228;SDS011;6177;52.402;9.800;2023-07-28T05:15:25;0.52;;;0.52;;
12228;SDS011;6177;52.402;9.800;2023-07-28T05:18:16;1.20;;;0.90;;
12228;SDS011;6177;52.402;9.800;2023-07-28T05:21:24;0.90;;;0.90;;
12228;SDS011;6177;52.402;9.800;2023-07-28T05:24:15;0.95;;;0.95;;
12228;SDS011;6177;52.402;9.800;2023-07-28T05:27:06;1.20;;;0.70;;
12228;SDS011;6177;52.402;9.800;2023-07-28T05:29:57;2.30;;;0.95;;
12228;SDS011;6177;52.402;9.800;2023-07-28T05:32:48;1.00;;;1.00;;
12228;SDS011;6177;52.402;9.800;2023-07-28T05:35:46;1.35;;;1.30;;
12228;SDS011;6177;52.402;9.800;2023-07-28T05:38:37;1.10;;;1.00;;
12228;SDS011;6177;52.402;9.800;2023-07-28T05:41:28;1.15;;;1.13;;
12228;SDS011;6177;52.402;9.800;2023-07-28T05:44:19;1.40;;;1.30;;
12228;SDS011;6177;52.402;9.800;2023-07-28T05:47:10;1.50;;;1.40;;
12228;SDS011;6177;52.402;9.800;2023-07-28T05:50:00;2.15;;;1.73;;
12228;SDS011;6177;52.402;9.800;2023-07-28T05:52:51;1.45;;;1.45;;
12228;SDS011;6177;52.402;9.800;2023-07-28T05:55:42;1.80;;;1.80;;
12228;SDS011;6177;52.402;9.800;2023-07-28T05:58:33;1.80;;;1.80;;
12228;SDS011;6177;52.402;9.800;2023-07-28T06:01:24;1.73;;;1.73;;
12228;SDS011;6177;52.402;9.800;2023-07-28T06:04:32;1.90;;;1.80;;
12228;SDS011;6177;52.402;9.800;2023-07-28T06:07:25;2.17;;;2.17;;
12228;SDS011;6177;52.402;9.800;2023-07-28T06:10:17;1.60;;;1.60;;
12228;SDS011;6177;52.402;9.800;2023-07-28T06:13:08;1.60;;;1.60;;
12228;SDS011;6177;52.402;9.800;2023-07-28T06:15:59;1.40;;;1.40;;
12228;SDS011;6177;52.402;9.800;2023-07-28T06:18:50;1.70;;;1.70;;
12228;SDS011;6177;52.402;9.800;2023-07-28T06:21:44;1.73;;;1.63;;
12228;SDS011;6177;52.402;9.800;2023-07-28T06:24:35;1.35;;;1.35;;
12228;SDS011;6177;52.402;9.800;2023-07-28T06:27:26;1.60;;;1.58;;
12228;SDS011;6177;52.402;9.800;2023-07-28T06:30:17;1.10;;;1.10;;
12228;SDS011;6177;52.402;9.800;2023-07-28T06:33:08;1.23;;;1.23;;
12228;SDS011;6177;52.402;9.800;2023-07-28T06:35:59;1.85;;;1.75;;
12228;SDS011;6177;52.402;9.800;2023-07-28T06:38:51;1.38;;;1.38;;
12228;SDS011;6177;52.402;9.800;2023-07-28T06:41:44;1.30;;;1.30;;
12228;SDS011;6177;52.402;9.800;2023-07-28T06:44:37;1.70;;;1.70;;
12228;SDS011;6177;52.402;9.800;2023-07-28T06:47:28;1.27;;;1.27;;
12228;SDS011;6177;52.402;9.800;2023-07-28T06:50:19;1.13;;;1.13;;
12228;SDS011;6177;52.402;9.800;2023-07-28T06:53:10;1.50;;;1.25;;
12228;SDS011;6177;52.402;9.800;2023-07-28T06:56:01;1.20;;;1.20;;
12228;SDS011;6177;52.402;9.800;2023-07-28T06:58:52;1.33;;;1.20;;
12228;SDS011;6177;52.402;9.800;2023-07-28T07:01:43;1.25;;;1.25;;
12228;SDS011;6177;52.402;9.800;2023-07-28T07:04:34;1.20;;;1.20;;
12228;SDS011;6177;52.402;9.800;2023-07-28T07:07:24;1.27;;;1.27;;
12228;SDS011;6177;52.402;9.800;2023-07-28T07:10:16;1.20;;;1.20;;
12228;SDS011;6177;52.402;9.800;2023-07-28T07:13:07;1.45;;;1.42;;
12228;SDS011;6177;52.402;9.800;2023-07-28T07:15:58;1.20;;;1.20;;
12228;SDS011;6177;52.402;9.800;2023-07-28T07:18:50;1.45;;;1.38;;
12228;SDS011;6177;52.402;9.800;2023-07-28T07:21:42;1.30;;;1.30;;
12228;SDS011;6177;52.402;9.800;2023-07-28T07:24:35;1.30;;;1.30;;
12228;SDS011;6177;52.402;9.800;2023-07-28T07:27:26;1.20;;;1.10;;
12228;SDS011;6177;52.402;9.800;2023-07-28T07:30:17;1.35;;;1.35;;
12228;SDS011;6177;52.402;9.800;2023-07-28T07:33:08;1.60;;;1.50;;
12228;SDS011;6177;52.402;9.800;2023-07-28T07:35:59;1.08;;;0.98;;
12228;SDS011;6177;52.402;9.800;2023-07-28T07:38:50;3.25;;;1.48;;
12228;SDS011;6177;52.402;9.800;2023-07-28T07:41:41;1.20;;;1.20;;
12228;SDS011;6177;52.402;9.800;2023-07-28T07:44:32;1.50;;;1.38;;
12228;SDS011;6177;52.402;9.800;2023-07-28T07:47:23;1.10;;;1.10;;
12228;SDS011;6177;52.402;9.800;2023-07-28T07:50:14;1.55;;;1.55;;
12228;SDS011;6177;52.402;9.800;2023-07-28T07:53:05;1.35;;;1.35;;
12228;SDS011;6177;52.402;9.800;2023-07-28T07:55:56;1.50;;;1.50;;
12228;SDS011;6177;52.402;9.800;2023-07-28T08:00:31;1.73;;;1.73;;
12228;SDS011;6177;52.402;9.800;2023-07-28T08:03:22;1.55;;;1.55;;
12228;SDS011;6177;52.402;9.800;2023-07-28T08:06:13;1.83;;;1.83;;
12228;SDS011;6177;52.402;9.800;2023-07-28T08:08:39;2.35;;;2.15;;
12228;SDS011;6177;52.402;9.800;2023-07-28T08:11:05;2.38;;;2.28;;
12228;SDS011;6177;52.402;9.800;2023-07-28T08:13:31;1.52;;;1.52;;
12228;SDS011;6177;52.402;9.800;2023-07-28T08:15:56;1.80;;;1.80;;
12228;SDS011;6177;52.402;9.800;2023-07-28T08:18:22;1.92;;;1.83;;
12228;SDS011;6177;52.402;9.800;2023-07-28T08:20:48;1.70;;;1.70;;
12228;SDS011;6177;52.402;9.800;2023-07-28T08:23:13;1.63;;;1.63;;
12228;SDS011;6177;52.402;9.800;2023-07-28T08:25:39;1.48;;;1.40;;
12228;SDS011;6177;52.402;9.800;2023-07-28T08:28:04;1.42;;;1.42;;
12228;SDS011;6177;52.402;9.800;2023-07-28T08:30:30;1.30;;;1.30;;
12228;SDS011;6177;52.402;9.800;2023-07-28T08:32:57;1.50;;;1.50;;
12228;SDS011;6177;52.402;9.800;2023-07-28T08:35:22;1.65;;;1.55;;
12228;SDS011;6177;52.402;9.800;2023-07-28T08:37:48;1.13;;;1.13;;
12228;SDS011;6177;52.402;9.800;2023-07-28T08:40:14;1.00;;;1.00;;
12228;SDS011;6177;52.402;9.800;2023-07-28T08:42:39;1.27;;;1.27;;
12228;SDS011;6177;52.402;9.800;2023-07-28T08:45:05;2.53;;;1.20;;
12228;SDS011;6177;52.402;9.800;2023-07-28T08:47:33;1.02;;;1.02;;
12228;SDS011;6177;52.402;9.800;2023-07-28T08:49:59;2.88;;;1.13;;
12228;SDS011;6177;52.402;9.800;2023-07-28T08:52:25;0.93;;;0.93;;
12228;SDS011;6177;52.402;9.800;2023-07-28T08:54:50;1.17;;;1.17;;
12228;SDS011;6177;52.402;9.800;2023-07-28T08:57:16;1.33;;;1.23;;
12228;SDS011;6177;52.402;9.800;2023-07-28T08:59:42;1.20;;;1.20;;
12228;SDS011;6177;52.402;9.800;2023-07-28T09:02:16;1.45;;;1.30;;
12228;SDS011;6177;52.402;9.800;2023-07-28T09:04:43;1.30;;;1.30;;
12228;SDS011;6177;52.402;9.800;2023-07-28T09:07:09;0.90;;;0.90;;
12228;SDS011;6177;52.402;9.800;2023-07-28T09:09:35;1.20;;;0.90;;
12228;SDS011;6177;52.402;9.800;2023-07-28T09:12:01;1.08;;;1.08;;
12228;SDS011;6177;52.402;9.800;2023-07-28T09:14:29;1.08;;;1.02;;
12228;SDS011;6177;52.402;9.800;2023-07-28T09:16:55;1.13;;;1.13;;
12228;SDS011;6177;52.402;9.800;2023-07-28T09:19:21;0.90;;;0.90;;
12228;SDS011;6177;52.402;9.800;2023-07-28T09:21:57;1.02;;;1.02;;
12228;SDS011;6177;52.402;9.800;2023-07-28T09:24:30;1.13;;;1.13;;
12228;SDS011;6177;52.402;9.800;2023-07-28T09:26:57;1.13;;;1.13;;
12228;SDS011;6177;52.402;9.800;2023-07-28T09:29:23;1.17;;;1.17;;
12228;SDS011;6177;52.402;9.800;2023-07-28T09:31:49;1.40;;;0.90;;
12228;SDS011;6177;52.402;9.800;2023-07-28T09:34:25;1.17;;;1.05;;
12228;SDS011;6177;52.402;9.800;2023-07-28T09:36:55;1.27;;;1.10;;
12228;SDS011;6177;52.402;9.800;2023-07-28T09:39:21;1.20;;;1.20;;
12228;SDS011;6177;52.402;9.800;2023-07-28T09:41:47;1.08;;;1.08;;
12228;SDS011;6177;52.402;9.800;2023-07-28T09:44:13;1.40;;;1.30;;
12228;SDS011;6177;52.402;9.800;2023-07-28T09:49:20;1.15;;;1.13;;
12228;SDS011;6177;52.402;9.800;2023-07-28T09:51:48;1.20;;;1.20;;
12228;SDS011;6177;52.402;9.800;2023-07-28T09:54:27;0.90;;;0.90;;
12228;SDS011;6177;52.402;9.800;2023-07-28T09:56:55;1.30;;;1.08;;
12228;SDS011;6177;52.402;9.800;2023-07-28T09:59:28;1.08;;;1.08;;
12228;SDS011;6177;52.402;9.800;2023-07-28T10:01:56;1.30;;;1.13;;
12228;SDS011;6177;52.402;9.800;2023-07-28T10:04:23;1.10;;;1.10;;
12228;SDS011;6177;52.402;9.800;2023-07-28T10:06:49;1.27;;;1.13;;
12228;SDS011;6177;52.402;9.800;2023-07-28T10:09:14;1.20;;;1.20;;
12228;SDS011;6177;52.402;9.800;2023-07-28T10:11:42;1.00;;;1.00;;
12228;SDS011;6177;52.402;9.800;2023-07-28T10:14:08;1.25;;;1.25;;
12228;SDS011;6177;52.402;9.800;2023-07-28T10:16:38;1.38;;;1.30;;
12228;SDS011;6177;52.402;9.800;2023-07-28T10:19:05;1.65;;;0.95;;
12228;SDS011;6177;52.402;9.800;2023-07-28T10:21:31;1.30;;;1.30;;
12228;SDS011;6177;52.402;9.800;2023-07-28T10:23:59;1.02;;;1.02;;
12228;SDS011;6177;52.402;9.800;2023-07-28T10:26:46;1.27;;;1.27;;
12228;SDS011;6177;52.402;9.800;2023-07-28T10:29:11;0.85;;;0.85;;
12228;SDS011;6177;52.402;9.800;2023-07-28T10:32:01;1.55;;;1.35;;
12228;SDS011;6177;52.402;9.800;2023-07-28T10:34:25;1.17;;;1.17;;
12228;SDS011;6177;52.402;9.800;2023-07-28T10:36:58;1.05;;;0.88;;
12228;SDS011;6177;52.402;9.800;2023-07-28T10:39:24;1.02;;;1.02;;
12228;SDS011;6177;52.402;9.800;2023-07-28T10:44:29;1.35;;;1.10;;
12228;SDS011;6177;52.402;9.800;2023-07-28T10:46:56;1.20;;;1.20;;
12228;SDS011;6177;52.402;9.800;2023-07-28T10:49:22;1.10;;;1.10;;
12228;SDS011;6177;52.402;9.800;2023-07-28T10:51:49;1.15;;;1.10;;
12228;SDS011;6177;52.402;9.800;2023-07-28T10:54:15;0.77;;;0.77;;
12228;SDS011;6177;52.402;9.800;2023-07-28T10:56:45;1.05;;;1.05;;
12228;SDS011;6177;52.402;9.800;2023-07-28T10:59:13;0.98;;;0.98;;
12228;SDS011;6177;52.402;9.800;2023-07-28T11:01:40;1.10;;;1.00;;
12228;SDS011;6177;52.402;9.800;2023-07-28T11:04:07;1.00;;;1.00;;
12228;SDS011;6177;52.402;9.800;2023-07-28T11:06:43;1.38;;;1.27;;
12228;SDS011;6177;52.402;9.800;2023-07-28T11:09:10;4.45;;;1.10;;
12228;SDS011;6177;52.402;9.800;2023-07-28T11:11:37;2.22;;;1.20;;
12228;SDS011;6177;52.402;9.800;2023-07-28T11:14:04;1.10;;;1.10;;
12228;SDS011;6177;52.402;9.800;2023-07-28T11:16:32;1.60;;;1.30;;
12228;SDS011;6177;52.402;9.800;2023-07-28T11:19:02;0.90;;;0.90;;
12228;SDS011;6177;52.402;9.800;2023-07-28T11:21:29;0.90;;;0.90;;
12228;SDS011;6177;52.402;9.800;2023-07-28T11:23:55;1.25;;;1.25;;
12228;SDS011;6177;52.402;9.800;2023-07-28T11:26:21;0.95;;;0.80;;
12228;SDS011;6177;52.402;9.800;2023-07-28T11:28:47;1.13;;;1.13;;
12228;SDS011;6177;52.402;9.800;2023-07-28T11:31:13;1.02;;;1.02;;
12228;SDS011;6177;52.402;9.800;2023-07-28T11:33:39;1.05;;;1.05;;
12228;SDS011;6177;52.402;9.800;2023-07-28T11:36:06;1.17;;;0.90;;
12228;SDS011;6177;52.402;9.800;2023-07-28T11:38:32;1.25;;;1.25;;
12228;SDS011;6177;52.402;9.800;2023-07-28T11:40:58;1.00;;;1.00;;
12228;SDS011;6177;52.402;9.800;2023-07-28T11:43:24;1.25;;;1.13;;
12228;SDS011;6177;52.402;9.800;2023-07-28T11:45:50;1.00;;;1.00;;
12228;SDS011;6177;52.402;9.800;2023-07-28T11:48:16;1.02;;;1.02;;
12228;SDS011;6177;52.402;9.800;2023-07-28T11:50:43;1.40;;;1.10;;
12228;SDS011;6177;52.402;9.800;2023-07-28T11:53:10;1.30;;;1.20;;
12228;SDS011;6177;52.402;9.800;2023-07-28T11:55:36;1.30;;;1.20;;
12228;SDS011;6177;52.402;9.800;2023-07-28T11:58:03;1.23;;;1.15;;
12228;SDS011;6177;52.402;9.800;2023-07-28T12:00:32;1.10;;;1.10;;
12228;SDS011;6177;52.402;9.800;2023-07-28T12:05:40;1.45;;;1.45;;
12228;SDS011;6177;52.402;9.800;2023-07-28T12:08:07;1.20;;;1.20;;
12228;SDS011;6177;52.402;9.800;2023-07-28T12:10:33;1.10;;;1.10;;
12228;SDS011;6177;52.402;9.800;2023-07-28T12:13:05;1.10;;;1.10;;
12228;SDS011;6177;52.402;9.800;2023-07-28T12:15:32;1.20;;;1.20;;
12228;SDS011;6177;52.402;9.800;2023-07-28T12:18:15;1.58;;;1.23;;
12228;SDS011;6177;52.402;9.800;2023-07-28T12:20:46;1.17;;;1.17;;
12228;SDS011;6177;52.402;9.800;2023-07-28T12:23:13;1.02;;;1.02;;
12228;SDS011;6177;52.402;9.800;2023-07-28T12:25:40;1.13;;;1.13;;
12228;SDS011;6177;52.402;9.800;2023-07-28T12:28:06;1.00;;;1.00;;
12228;SDS011;6177;52.402;9.800;2023-07-28T12:30:32;1.15;;;1.15;;
12228;SDS011;6177;52.402;9.800;2023-07-28T12:32:58;1.10;;;1.10;;
12228;SDS011;6177;52.402;9.800;2023-07-28T12:35:24;1.25;;;1.10;;
12228;SDS011;6177;52.402;9.800;2023-07-28T12:37:50;1.40;;;1.00;;
12228;SDS011;6177;52.402;9.800;2023-07-28T12:40:16;1.10;;;1.05;;
12228;SDS011;6177;52.402;9.800;2023-07-28T12:42:44;1.05;;;1.05;;
12228;SDS011;6177;52.402;9.800;2023-07-28T12:45:11;1.00;;;1.00;;
12228;SDS011;6177;52.402;9.800;2023-07-28T12:47:37;0.88;;;0.88;;
12228;SDS011;6177;52.402;9.800;2023-07-28T12:50:03;1.10;;;1.10;;
12228;SDS011;6177;52.402;9.800;2023-07-28T12:52:29;1.25;;;1.25;;
12228;SDS011;6177;52.402;9.800;2023-07-28T12:54:54;0.90;;;0.90;;
12228;SDS011;6177;52.402;9.800;2023-07-28T12:57:20;1.05;;;1.05;;
12228;SDS011;6177;52.402;9.800;2023-07-28T12:59:45;1.20;;;1.20;;
12228;SDS011;6177;52.402;9.800;2023-07-28T13:02:11;1.35;;;1.35;;
12228;SDS011;6177;52.402;9.800;2023-07-28T13:04:37;2.00;;;1.15;;
12228;SDS011;6177;52.402;9.800;2023-07-28T13:07:02;1.90;;;1.23;;
12228;SDS011;6177;52.402;9.800;2023-07-28T13:09:28;3.70;;;1.30;;
12228;SDS011;6177;52.402;9.800;2023-07-28T13:11:53;1.10;;;1.10;;
12228;SDS011;6177;52.402;9.800;2023-07-28T13:14:19;1.33;;;1.33;;
12228;SDS011;6177;52.402;9.800;2023-07-28T13:16:44;1.25;;;1.25;;
12228;SDS011;6177;52.402;9.800;2023-07-28T13:19:10;1.27;;;1.27;;
12228;SDS011;6177;52.402;9.800;2023-07-28T13:21:36;1.10;;;1.10;;
12228;SDS011;6177;52.402;9.800;2023-07-28T13:24:01;5.35;;;1.33;;
12228;SDS011;6177;52.402;9.800;2023-07-28T13:26:27;1.52;;;1.52;;
12228;SDS011;6177;52.402;9.800;2023-07-28T13:28:52;1.30;;;1.27;;
12228;SDS011;6177;52.402;9.800;2023-07-28T13:31:18;1.77;;;1.30;;
12228;SDS011;6177;52.402;9.800;2023-07-28T13:33:43;1.35;;;1.35;;
12228;SDS011;6177;52.402;9.800;2023-07-28T13:36:09;1.45;;;1.35;;
12228;SDS011;6177;52.402;9.800;2023-07-28T13:38:35;1.20;;;1.20;;
12228;SDS011;6177;52.402;9.800;2023-07-28T13:41:03;1.23;;;1.23;;
12228;SDS011;6177;52.402;9.800;2023-07-28T13:43:29;1.25;;;1.25;;
12228;SDS011;6177;52.402;9.800;2023-07-28T13:45:55;1.35;;;1.35;;
12228;SDS011;6177;52.402;9.800;2023-07-28T13:48:21;1.40;;;1.40;;
12228;SDS011;6177;52.402;9.800;2023-07-28T13:50:46;1.50;;;1.50;;
12228;SDS011;6177;52.402;9.800;2023-07-28T13:53:12;1.55;;;1.50;;
12228;SDS011;6177;52.402;9.800;2023-07-28T13:55:37;1.38;;;1.38;;
12228;SDS011;6177;52.402;9.800;2023-07-28T13:58:03;1.50;;;1.40;;
12228;SDS011;6177;52.402;9.800;2023-07-28T14:00:29;4.25;;;1.60;;
12228;SDS011;6177;52.402;9.800;2023-07-28T14:02:55;1.42;;;1.42;;
12228;SDS011;6177;52.402;9.800;2023-07-28T14:05:20;1.20;;;1.20;;
12228;SDS011;6177;52.402;9.800;2023-07-28T14:07:48;1.60;;;1.60;;
12228;SDS011;6177;52.402;9.800;2023-07-28T14:10:13;1.15;;;1.15;;
12228;SDS011;6177;52.402;9.800;2023-07-28T14:12:39;1.13;;;1.13;;
12228;SDS011;6177;52.402;9.800;2023-07-28T14:15:04;1.40;;;1.30;;
12228;SDS011;6177;52.402;9.800;2023-07-28T14:17:32;1.25;;;1.25;;
12228;SDS011;6177;52.402;9.800;2023-07-28T14:19:58;1.30;;;1.30;;
12228;SDS011;6177;52.402;9.800;2023-07-28T14:22:23;1.30;;;1.30;;
12228;SDS011;6177;52.402;9.800;2023-07-28T14:24:49;1.40;;;1.40;;
12228;SDS011;6177;52.402;9.800;2023-07-28T14:27:15;1.30;;;1.20;;
12228;SDS011;6177;52.402;9.800;2023-07-28T14:29:41;1.30;;;1.30;;
12228;SDS011;6177;52.402;9.800;2023-07-28T14:32:06;1.27;;;1.27;;
12228;SDS011;6177;52.402;9.800;2023-07-28T14:34:33;1.30;;;1.30;;
12228;SDS011;6177;52.402;9.800;2023-07-28T14:37:04;1.23;;;1.23;;
12228;SDS011;6177;52.402;9.800;2023-07-28T14:39:33;1.38;;;1.23;;
12228;SDS011;6177;52.402;9.800;2023-07-28T14:41:58;1.40;;;1.40;;
12228;SDS011;6177;52.402;9.800;2023-07-28T14:44:24;1.42;;;1.42;;
12228;SDS011;6177;52.402;9.800;2023-07-28T14:46:49;1.77;;;1.77;;
12228;SDS011;6177;52.402;9.800;2023-07-28T14:49:15;1.17;;;1.17;;
12228;SDS011;6177;52.402;9.800;2023-07-28T14:51:40;1.45;;;1.45;;
12228;SDS011;6177;52.402;9.800;2023-07-28T14:54:06;1.30;;;1.30;;
12228;SDS011;6177;52.402;9.800;2023-07-28T14:56:31;1.40;;;1.40;;
12228;SDS011;6177;52.402;9.800;2023-07-28T14:59:00;1.20;;;1.20;;
12228;SDS011;6177;52.402;9.800;2023-07-28T15:01:28;1.58;;;1.50;;
12228;SDS011;6177;52.402;9.800;2023-07-28T15:03:54;1.48;;;1.48;;
12228;SDS011;6177;52.402;9.800;2023-07-28T15:06:20;1.17;;;1.17;;
12228;SDS011;6177;52.402;9.800;2023-07-28T15:08:45;1.17;;;1.17;;
12228;SDS011;6177;52.402;9.800;2023-07-28T15:11:11;1.30;;;1.30;;
12228;SDS011;6177;52.402;9.800;2023-07-28T15:13:36;1.00;;;1.00;;
12228;SDS011;6177;52.402;9.800;2023-07-28T15:16:02;1.00;;;1.00;;
12228;SDS011;6177;52.402;9.800;2023-07-28T15:18:27;0.98;;;0.98;;
12228;SDS011;6177;52.402;9.800;2023-07-28T15:20:53;1.23;;;1.23;;
12228;SDS011;6177;52.402;9.800;2023-07-28T15:23:22;1.20;;;1.20;;
12228;SDS011;6177;52.402;9.800;2023-07-28T15:25:48;1.13;;;1.13;;
12228;SDS011;6177;52.402;9.800;2023-07-28T15:28:13;0.88;;;0.88;;
12228;SDS011;6177;52.402;9.800;2023-07-28T15:30:39;1.13;;;1.00;;
12228;SDS011;6177;52.402;9.800;2023-07-28T15:33:07;1.10;;;1.10;;
12228;SDS011;6177;52.402;9.800;2023-07-28T15:35:33;1.10;;;1.10;;
12228;SDS011;6177;52.402;9.800;2023-07-28T15:37:58;1.30;;;1.30;;
12228;SDS011;6177;52.402;9.800;2023-07-28T15:40:24;1.27;;;1.27;;
12228;SDS011;6177;52.402;9.800;2023-07-28T15:42:49;1.23;;;1.23;;
12228;SDS011;6177;52.402;9.800;2023-07-28T15:45:15;1.58;;;1.52;;
12228;SDS011;6177;52.402;9.800;2023-07-28T15:47:41;1.40;;;1.40;;
12228;SDS011;6177;52.402;9.800;2023-07-28T15:50:06;1.30;;;1.30;;
12228;SDS011;6177;52.402;9.800;2023-07-28T15:52:32;1.20;;;1.20;;
12228;SDS011;6177;52.402;9.800;2023-07-28T15:54:58;1.80;;;1.60;;
12228;SDS011;6177;52.402;9.800;2023-07-28T15:57:24;1.33;;;1.33;;
12228;SDS011;6177;52.402;9.800;2023-07-28T15:59:49;1.48;;;1.48;;
12228;SDS011;6177;52.402;9.800;2023-07-28T16:02:15;1.20;;;1.20;;
12228;SDS011;6177;52.402;9.800;2023-07-28T16:04:40;1.60;;;1.50;;
12228;SDS011;6177;52.402;9.800;2023-07-28T16:07:06;1.80;;;1.80;;
12228;SDS011;6177;52.402;9.800;2023-07-28T16:09:32;1.70;;;1.70;;
12228;SDS011;6177;52.402;9.800;2023-07-28T16:11:58;1.80;;;1.70;;
12228;SDS011;6177;52.402;9.800;2023-07-28T16:14:23;1.52;;;1.52;;
12228;SDS011;6177;52.402;9.800;2023-07-28T16:16:49;1.38;;;1.38;;
12228;SDS011;6177;52.402;9.800;2023-07-28T16:19:15;1.45;;;1.45;;
12228;SDS011;6177;52.402;9.800;2023-07-28T16:21:40;2.13;;;1.83;;
12228;SDS011;6177;52.402;9.800;2023-07-28T16:24:06;1.73;;;1.73;;